KBED/BED METAR and TAF weather

Enter ICAO airport designator
Station Type Date Time Source
KBED METAR 2024/06/15 23:51 UTC NOAA

KBED 152351Z 35008G16KT 10SM CLR 20/05 A3002 RMK AO2 SLP177 T02000050 10250 20200 53017


Station Type Date Time Source
KBED Decoded METAR 2024/06/15 23:51 UTC NOAA

BEDFORD HANSCOM FIELD, MA, United States (KBED) 42-28N 071-18W 50M
Jun 15, 2024 - 07:51 PM EDT / 2024.06.15 2351 UTC
Wind: from the N (350 degrees) at 9 MPH (8 KT) gusting to 18 MPH (16 KT):0
Visibility: 10 mile(s):0
Sky conditions: clear
Temperature: 68.0 F (20.0 C)
Dew Point: 41.0 F (5.0 C)
Relative Humidity: 37%
Pressure (altimeter): 30.02 in. Hg (1016 hPa)
Pressure tendency: 0.05 inches (1.7 hPa) higher than three hours ago
ob: KBED 152351Z 35008G16KT 10SM CLR 20/05 A3002 RMK AO2 SLP177 T02000050 10250 20200 53017
cycle: 0

Station Type Date Time Source
KBED TAF 2024/06/15 21:57 UTC NOAA